Aérodrome :
LOGIN :

S'inscrire | Disclaimer

   EN    FR    IT 

 










Légende :    VFR   VFR Marginal   IFR   IFR Intensif   IFR Très Intensif
Visi : 
Plafond : 
>= 8 km
>= 3000ft
5 à 8 km
1000 à 3000 ft
1500m à 5 km
500 à 1000 ft
800 à 1500m
200 à 500 ft
< 800m
< 200 ft
Symboles :   Orages  Brouillard  Fortes neiges  Fortes précipitations  Vent > 20 kt
SIGMETs :   Divers  Orages  Givrage  Turbulence  Onde Orograph.  Cendres Volcan.






- Altitude de l'aérodrome : 584 ft


LFPV - Villacoublay Vélizy

DERNIER METAR :
  • 240100Z AUTO 08005KT 050V110 5000 BR BKN006 BKN210 M00/M01 Q1024 TEMPO 0500 FG VV///

METARs EXPIRÉS :
  • 240030Z AUTO 04006KT 5000 BR SCT005 SCT190 BKN200 M00/M01 Q1023 TEMPO 0500 FG VV///
  • 240000Z AUTO 05005KT 4800 BR OVC004 00/M00 Q1024 TEMPO 0500 FG VV///
  • 232330Z AUTO 02006KT 4100 BR BKN003 OVC210 00/00 Q1024 TEMPO 0500 FG VV///
  • 232300Z AUTO 01006KT 4900 BR FEW003 OVC200 00/M00 Q1024 TEMPO 0500 FG VV///
  • 232230Z AUTO 04004KT 6000 NSC M00/M01 Q1024 TEMPO 0500 FG VV///

TAF TAF LFPV
Valide du 23 à 21h jusqu'au 24 à 21h UTC


232000Z 2321/2421 05006KT 6000 SCT005
BECMG 2322/2324 3000 BR BKN002
PROB30 2400/2405 0500 FG VV///
BECMG 2406/2408 BKN005
TEMPO 2412/2416 SCT015



MET'MAP, la Météo Aéronautique d'un coup d'oeil ! - Copyright ORBIFLY Décembre 2007 - Disclaimer

ORBIFLY MET'MAP TEAM :

Programmation & Développement : Alexandra Zaïnal
Sur une idée originale de : Baudouin d'Aumeries
Assistance à la programmation : Marc-Olivier Méhu
Soutien technique & logistique : Manuel Goepfert

Contact : metmap@orbifly.com




SOURCES & CREDITS :

   NOAA